sensor_id;sensor_type;location;lat;lon;timestamp;temperature;humidity
74923;HTU21D;64715;44.760;37.678;2022-11-15T00:00:51;4.93;81.62
74923;HTU21D;64715;44.760;37.678;2022-11-15T00:02:11;4.95;81.65
74923;HTU21D;64715;44.760;37.678;2022-11-15T00:03:31;4.95;81.68
74923;HTU21D;64715;44.760;37.678;2022-11-15T00:04:50;4.94;81.88
74923;HTU21D;64715;44.760;37.678;2022-11-15T00:06:10;4.93;81.91
74923;HTU21D;64715;44.760;37.678;2022-11-15T00:07:29;4.92;81.90
74923;HTU21D;64715;44.760;37.678;2022-11-15T00:08:49;4.94;82.01
74923;HTU21D;64715;44.760;37.678;2022-11-15T00:10:09;4.93;81.99
74923;HTU21D;64715;44.760;37.678;2022-11-15T00:11:30;4.92;81.83
74923;HTU21D;64715;44.760;37.678;2022-11-15T00:12:49;4.89;81.64
74923;HTU21D;64715;44.760;37.678;2022-11-15T00:14:09;4.89;81.90
74923;HTU21D;64715;44.760;37.678;2022-11-15T00:15:28;4.88;81.36
74923;HTU21D;64715;44.760;37.678;2022-11-15T00:16:49;4.84;81.84
74923;HTU21D;64715;44.760;37.678;2022-11-15T00:18:13;4.83;81.62
74923;HTU21D;64715;44.760;37.678;2022-11-15T00:19:34;4.81;81.90
74923;HTU21D;64715;44.760;37.678;2022-11-15T00:20:54;4.81;81.81
74923;HTU21D;64715;44.760;37.678;2022-11-15T00:22:13;4.79;81.75
74923;HTU21D;64715;44.760;37.678;2022-11-15T00:23:33;4.77;81.65
74923;HTU21D;64715;44.760;37.678;2022-11-15T00:24:54;4.77;81.59
74923;HTU21D;64715;44.760;37.678;2022-11-15T00:26:14;4.76;81.94
74923;HTU21D;64715;44.760;37.678;2022-11-15T00:27:34;4.73;81.68
74923;HTU21D;64715;44.760;37.678;2022-11-15T00:28:53;4.71;81.66
74923;HTU21D;64715;44.760;37.678;2022-11-15T00:30:13;4.68;82.07
74923;HTU21D;64715;44.760;37.678;2022-11-15T00:31:32;4.69;82.21
74923;HTU21D;64715;44.760;37.678;2022-11-15T00:32:52;4.68;82.21
74923;HTU21D;64715;44.760;37.678;2022-11-15T00:34:11;4.67;82.21
74923;HTU21D;64715;44.760;37.678;2022-11-15T00:35:32;4.65;81.88
74923;HTU21D;64715;44.760;37.678;2022-11-15T00:36:52;4.63;82.01
74923;HTU21D;64715;44.760;37.678;2022-11-15T00:38:12;4.60;81.88
74923;HTU21D;64715;44.760;37.678;2022-11-15T00:39:31;4.60;82.08
74923;HTU21D;64715;44.760;37.678;2022-11-15T00:40:51;4.59;82.22
74923;HTU21D;64715;44.760;37.678;2022-11-15T00:42:10;4.54;82.04
74923;HTU21D;64715;44.760;37.678;2022-11-15T00:43:29;4.51;81.78
74923;HTU21D;64715;44.760;37.678;2022-11-15T00:44:49;4.48;81.88
74923;HTU21D;64715;44.760;37.678;2022-11-15T00:46:09;4.47;82.05
74923;HTU21D;64715;44.760;37.678;2022-11-15T00:47:29;4.45;81.65
74923;HTU21D;64715;44.760;37.678;2022-11-15T00:48:48;4.43;82.08
74923;HTU21D;64715;44.760;37.678;2022-11-15T00:50:08;4.42;82.08
74923;HTU21D;64715;44.760;37.678;2022-11-15T00:51:29;4.41;82.04
74923;HTU21D;64715;44.760;37.678;2022-11-15T00:52:48;4.38;82.25
74923;HTU21D;64715;44.760;37.678;2022-11-15T00:54:07;4.36;82.33
74923;HTU21D;64715;44.760;37.678;2022-11-15T00:55:26;4.32;82.08
74923;HTU21D;64715;44.760;37.678;2022-11-15T00:56:46;4.33;82.20
74923;HTU21D;64715;44.760;37.678;2022-11-15T00:58:05;4.30;82.12
74923;HTU21D;64715;44.760;37.678;2022-11-15T00:59:26;4.29;82.53
74923;HTU21D;64715;44.760;37.678;2022-11-15T01:00:45;4.26;82.17
74923;HTU21D;64715;44.760;37.678;2022-11-15T01:02:06;4.23;82.25
74923;HTU21D;64715;44.760;37.678;2022-11-15T01:03:25;4.23;82.70
74923;HTU21D;64715;44.760;37.678;2022-11-15T01:04:45;4.20;82.48
74923;HTU21D;64715;44.760;37.678;2022-11-15T01:06:06;4.15;82.20
74923;HTU21D;64715;44.760;37.678;2022-11-15T01:07:27;4.09;82.41
74923;HTU21D;64715;44.760;37.678;2022-11-15T01:08:46;4.07;81.95
74923;HTU21D;64715;44.760;37.678;2022-11-15T01:10:06;4.04;82.12
74923;HTU21D;64715;44.760;37.678;2022-11-15T01:11:26;3.99;81.98
74923;HTU21D;64715;44.760;37.678;2022-11-15T01:12:46;3.97;82.16
74923;HTU21D;64715;44.760;37.678;2022-11-15T01:14:05;3.94;82.50
74923;HTU21D;64715;44.760;37.678;2022-11-15T01:15:26;3.94;82.59
74923;HTU21D;64715;44.760;37.678;2022-11-15T01:16:46;3.92;82.59
74923;HTU21D;64715;44.760;37.678;2022-11-15T01:18:05;3.91;82.80
74923;HTU21D;64715;44.760;37.678;2022-11-15T01:19:25;3.88;82.69
74923;HTU21D;64715;44.760;37.678;2022-11-15T01:20:45;3.87;82.86
74923;HTU21D;64715;44.760;37.678;2022-11-15T01:22:05;3.84;82.90
74923;HTU21D;64715;44.760;37.678;2022-11-15T01:23:25;3.85;82.98
74923;HTU21D;64715;44.760;37.678;2022-11-15T01:24:44;3.82;83.02
74923;HTU21D;64715;44.760;37.678;2022-11-15T01:26:06;3.80;82.94
74923;HTU21D;64715;44.760;37.678;2022-11-15T01:27:25;3.79;83.15
74923;HTU21D;64715;44.760;37.678;2022-11-15T01:28:45;3.78;83.02
74923;HTU21D;64715;44.760;37.678;2022-11-15T01:30:05;3.76;82.98
74923;HTU21D;64715;44.760;37.678;2022-11-15T01:31:26;3.74;82.95
74923;HTU21D;64715;44.760;37.678;2022-11-15T01:32:45;3.75;82.89
74923;HTU21D;64715;44.760;37.678;2022-11-15T01:34:05;3.72;83.24
74923;HTU21D;64715;44.760;37.678;2022-11-15T01:35:24;3.71;83.39
74923;HTU21D;64715;44.760;37.678;2022-11-15T01:36:44;3.69;83.54
74923;HTU21D;64715;44.760;37.678;2022-11-15T01:38:03;3.70;83.67
74923;HTU21D;64715;44.760;37.678;2022-11-15T01:39:23;3.65;83.74
74923;HTU21D;64715;44.760;37.678;2022-11-15T01:40:43;3.63;83.34
74923;HTU21D;64715;44.760;37.678;2022-11-15T01:42:02;3.61;83.70
74923;HTU21D;64715;44.760;37.678;2022-11-15T01:43:27;3.58;83.51
74923;HTU21D;64715;44.760;37.678;2022-11-15T01:44:51;3.58;83.54
74923;HTU21D;64715;44.760;37.678;2022-11-15T01:47:43;3.54;83.58
74923;HTU21D;64715;44.760;37.678;2022-11-15T01:49:14;3.48;83.45
74923;HTU21D;64715;44.760;37.678;2022-11-15T01:50:35;3.47;83.52
74923;HTU21D;64715;44.760;37.678;2022-11-15T01:51:55;3.45;83.51
74923;HTU21D;64715;44.760;37.678;2022-11-15T01:53:16;3.44;83.49
74923;HTU21D;64715;44.760;37.678;2022-11-15T01:54:36;3.42;83.77
74923;HTU21D;64715;44.760;37.678;2022-11-15T01:55:56;3.40;83.59
74923;HTU21D;64715;44.760;37.678;2022-11-15T01:57:15;3.40;83.60
74923;HTU21D;64715;44.760;37.678;2022-11-15T01:58:36;3.39;83.80
74923;HTU21D;64715;44.760;37.678;2022-11-15T01:59:57;3.40;84.00
74923;HTU21D;64715;44.760;37.678;2022-11-15T02:01:17;3.35;83.89
74923;HTU21D;64715;44.760;37.678;2022-11-15T02:02:37;3.36;83.81
74923;HTU21D;64715;44.760;37.678;2022-11-15T02:04:06;3.35;83.94
74923;HTU21D;64715;44.760;37.678;2022-11-15T02:05:29;3.32;83.93
74923;HTU21D;64715;44.760;37.678;2022-11-15T02:06:49;3.32;83.77
74923;HTU21D;64715;44.760;37.678;2022-11-15T02:08:10;3.33;84.23
74923;HTU21D;64715;44.760;37.678;2022-11-15T02:09:40;3.33;84.21
74923;HTU21D;64715;44.760;37.678;2022-11-15T02:11:00;3.31;84.08
74923;HTU21D;64715;44.760;37.678;2022-11-15T02:12:20;3.30;84.45
74923;HTU21D;64715;44.760;37.678;2022-11-15T02:13:41;3.32;84.51
74923;HTU21D;64715;44.760;37.678;2022-11-15T02:15:04;3.32;84.35
74923;HTU21D;64715;44.760;37.678;2022-11-15T02:22:33;3.36;84.74
74923;HTU21D;64715;44.760;37.678;2022-11-15T02:27:14;3.36;84.65
74923;HTU21D;64715;44.760;37.678;2022-11-15T02:31:59;3.38;84.78
74923;HTU21D;64715;44.760;37.678;2022-11-15T02:36:11;3.36;84.66
74923;HTU21D;64715;44.760;37.678;2022-11-15T02:37:51;3.31;85.06
74923;HTU21D;64715;44.760;37.678;2022-11-15T02:39:19;3.30;85.06
74923;HTU21D;64715;44.760;37.678;2022-11-15T02:40:53;3.27;84.90
74923;HTU21D;64715;44.760;37.678;2022-11-15T02:42:21;3.26;84.72
74923;HTU21D;64715;44.760;37.678;2022-11-15T02:44:45;3.21;84.93
74923;HTU21D;64715;44.760;37.678;2022-11-15T02:48:15;3.24;84.85
74923;HTU21D;64715;44.760;37.678;2022-11-15T02:49:35;3.23;84.74
74923;HTU21D;64715;44.760;37.678;2022-11-15T02:50:58;3.25;84.87
74923;HTU21D;64715;44.760;37.678;2022-11-15T02:52:20;3.28;85.02
74923;HTU21D;64715;44.760;37.678;2022-11-15T02:53:40;3.27;85.44
74923;HTU21D;64715;44.760;37.678;2022-11-15T02:55:01;3.28;85.36
74923;HTU21D;64715;44.760;37.678;2022-11-15T02:56:20;3.28;85.32
74923;HTU21D;64715;44.760;37.678;2022-11-15T02:57:51;3.29;85.45
74923;HTU21D;64715;44.760;37.678;2022-11-15T02:59:41;3.30;85.10
74923;HTU21D;64715;44.760;37.678;2022-11-15T03:01:45;3.32;85.21
74923;HTU21D;64715;44.760;37.678;2022-11-15T03:04:52;3.30;84.97
74923;HTU21D;64715;44.760;37.678;2022-11-15T03:12:30;3.27;85.18
74923;HTU21D;64715;44.760;37.678;2022-11-15T03:15:45;3.25;85.29
74923;HTU21D;64715;44.760;37.678;2022-11-15T03:18:38;3.20;85.11
74923;HTU21D;64715;44.760;37.678;2022-11-15T03:19:59;3.21;85.32
74923;HTU21D;64715;44.760;37.678;2022-11-15T03:21:21;3.24;85.32
74923;HTU21D;64715;44.760;37.678;2022-11-15T03:22:44;3.20;84.97
74923;HTU21D;64715;44.760;37.678;2022-11-15T03:24:06;3.18;85.03
74923;HTU21D;64715;44.760;37.678;2022-11-15T03:25:28;3.19;85.02
74923;HTU21D;64715;44.760;37.678;2022-11-15T03:26:49;3.17;85.46
74923;HTU21D;64715;44.760;37.678;2022-11-15T03:28:15;3.17;85.29
74923;HTU21D;64715;44.760;37.678;2022-11-15T03:29:39;3.16;85.19
74923;HTU21D;64715;44.760;37.678;2022-11-15T03:31:02;3.18;85.32
74923;HTU21D;64715;44.760;37.678;2022-11-15T03:32:48;3.19;85.13
74923;HTU21D;64715;44.760;37.678;2022-11-15T03:35:41;3.18;85.14
74923;HTU21D;64715;44.760;37.678;2022-11-15T03:37:02;3.21;85.34
74923;HTU21D;64715;44.760;37.678;2022-11-15T03:38:24;3.18;85.51
74923;HTU21D;64715;44.760;37.678;2022-11-15T03:39:45;3.18;85.62
74923;HTU21D;64715;44.760;37.678;2022-11-15T03:41:08;3.19;85.45
74923;HTU21D;64715;44.760;37.678;2022-11-15T03:42:55;3.23;85.57
74923;HTU21D;64715;44.760;37.678;2022-11-15T03:44:27;3.23;85.05
74923;HTU21D;64715;44.760;37.678;2022-11-15T03:46:00;3.24;85.38
74923;HTU21D;64715;44.760;37.678;2022-11-15T03:47:36;3.23;85.48
74923;HTU21D;64715;44.760;37.678;2022-11-15T03:49:06;3.24;85.48
74923;HTU21D;64715;44.760;37.678;2022-11-15T03:50:28;3.25;85.32
74923;HTU21D;64715;44.760;37.678;2022-11-15T03:51:48;3.23;85.38
74923;HTU21D;64715;44.760;37.678;2022-11-15T03:53:08;3.23;85.67
74923;HTU21D;64715;44.760;37.678;2022-11-15T03:54:28;3.26;85.49
74923;HTU21D;64715;44.760;37.678;2022-11-15T03:55:47;3.24;85.29
74923;HTU21D;64715;44.760;37.678;2022-11-15T03:57:07;3.26;85.31
74923;HTU21D;64715;44.760;37.678;2022-11-15T03:58:26;3.25;85.60
74923;HTU21D;64715;44.760;37.678;2022-11-15T03:59:46;3.26;85.48
74923;HTU21D;64715;44.760;37.678;2022-11-15T04:01:05;3.25;85.40
74923;HTU21D;64715;44.760;37.678;2022-11-15T04:02:24;3.27;85.33
74923;HTU21D;64715;44.760;37.678;2022-11-15T04:03:44;3.26;85.41
74923;HTU21D;64715;44.760;37.678;2022-11-15T04:05:03;3.24;85.37
74923;HTU21D;64715;44.760;37.678;2022-11-15T04:06:25;3.26;85.33
74923;HTU21D;64715;44.760;37.678;2022-11-15T04:07:44;3.25;85.56
74923;HTU21D;64715;44.760;37.678;2022-11-15T04:09:04;3.27;85.50
74923;HTU21D;64715;44.760;37.678;2022-11-15T04:10:24;3.25;85.21
74923;HTU21D;64715;44.760;37.678;2022-11-15T04:11:43;3.26;85.54
74923;HTU21D;64715;44.760;37.678;2022-11-15T04:13:03;3.25;85.26
74923;HTU21D;64715;44.760;37.678;2022-11-15T04:14:22;3.24;85.23
74923;HTU21D;64715;44.760;37.678;2022-11-15T04:15:41;3.24;85.27
74923;HTU21D;64715;44.760;37.678;2022-11-15T04:17:02;3.23;85.56
74923;HTU21D;64715;44.760;37.678;2022-11-15T04:18:21;3.21;85.32
74923;HTU21D;64715;44.760;37.678;2022-11-15T04:19:41;3.23;85.39
74923;HTU21D;64715;44.760;37.678;2022-11-15T04:21:19;3.25;85.38
74923;HTU21D;64715;44.760;37.678;2022-11-15T04:23:00;3.26;85.55
74923;HTU21D;64715;44.760;37.678;2022-11-15T04:24:39;3.31;85.13
74923;HTU21D;64715;44.760;37.678;2022-11-15T04:26:00;3.31;85.26
74923;HTU21D;64715;44.760;37.678;2022-11-15T04:27:20;3.31;85.28
74923;HTU21D;64715;44.760;37.678;2022-11-15T04:28:40;3.28;85.67
74923;HTU21D;64715;44.760;37.678;2022-11-15T04:30:18;3.30;84.82
74923;HTU21D;64715;44.760;37.678;2022-11-15T04:31:38;3.32;85.14
74923;HTU21D;64715;44.760;37.678;2022-11-15T04:32:57;3.32;85.02
74923;HTU21D;64715;44.760;37.678;2022-11-15T04:34:17;3.33;84.84
74923;HTU21D;64715;44.760;37.678;2022-11-15T04:35:37;3.33;84.98
74923;HTU21D;64715;44.760;37.678;2022-11-15T04:36:57;3.34;85.06
74923;HTU21D;64715;44.760;37.678;2022-11-15T04:38:32;3.36;85.12
74923;HTU21D;64715;44.760;37.678;2022-11-15T04:39:52;3.41;84.97
74923;HTU21D;64715;44.760;37.678;2022-11-15T04:41:12;3.47;85.13
74923;HTU21D;64715;44.760;37.678;2022-11-15T04:42:32;3.57;85.51
74923;HTU21D;64715;44.760;37.678;2022-11-15T04:43:51;3.67;85.63
74923;HTU21D;64715;44.760;37.678;2022-11-15T04:45:11;3.83;86.09
74923;HTU21D;64715;44.760;37.678;2022-11-15T04:46:30;3.98;86.07
74923;HTU21D;64715;44.760;37.678;2022-11-15T04:47:51;4.18;86.01
74923;HTU21D;64715;44.760;37.678;2022-11-15T04:49:10;4.37;86.15
74923;HTU21D;64715;44.760;37.678;2022-11-15T04:50:30;4.61;85.93
74923;HTU21D;64715;44.760;37.678;2022-11-15T04:51:49;4.86;85.67
74923;HTU21D;64715;44.760;37.678;2022-11-15T04:53:09;5.10;85.42
74923;HTU21D;64715;44.760;37.678;2022-11-15T04:54:28;5.35;85.03
74923;HTU21D;64715;44.760;37.678;2022-11-15T04:55:49;5.62;84.38
74923;HTU21D;64715;44.760;37.678;2022-11-15T04:57:08;5.86;83.82
74923;HTU21D;64715;44.760;37.678;2022-11-15T04:58:29;6.09;83.41
74923;HTU21D;64715;44.760;37.678;2022-11-15T04:59:48;6.27;82.66
74923;HTU21D;64715;44.760;37.678;2022-11-15T05:01:11;6.41;82.34
74923;HTU21D;64715;44.760;37.678;2022-11-15T05:02:31;6.54;81.97
74923;HTU21D;64715;44.760;37.678;2022-11-15T05:04:10;6.74;81.72
74923;HTU21D;64715;44.760;37.678;2022-11-15T05:05:39;6.88;81.36
74923;HTU21D;64715;44.760;37.678;2022-11-15T05:06:59;7.02;80.67
74923;HTU21D;64715;44.760;37.678;2022-11-15T05:08:19;7.19;80.56
74923;HTU21D;64715;44.760;37.678;2022-11-15T05:09:38;7.37;80.33
74923;HTU21D;64715;44.760;37.678;2022-11-15T05:10:58;7.48;79.67
74923;HTU21D;64715;44.760;37.678;2022-11-15T05:12:17;7.58;79.41
74923;HTU21D;64715;44.760;37.678;2022-11-15T05:13:37;7.67;78.75
74923;HTU21D;64715;44.760;37.678;2022-11-15T05:14:56;7.74;78.53
74923;HTU21D;64715;44.760;37.678;2022-11-15T05:16:16;7.81;78.13
74923;HTU21D;64715;44.760;37.678;2022-11-15T05:17:35;7.91;77.63
74923;HTU21D;64715;44.760;37.678;2022-11-15T05:18:56;7.99;77.46
74923;HTU21D;64715;44.760;37.678;2022-11-15T05:20:15;8.13;77.16
74923;HTU21D;64715;44.760;37.678;2022-11-15T05:21:35;8.28;76.81
74923;HTU21D;64715;44.760;37.678;2022-11-15T05:22:54;8.46;76.28
74923;HTU21D;64715;44.760;37.678;2022-11-15T05:24:16;8.71;75.99
74923;HTU21D;64715;44.760;37.678;2022-11-15T05:25:36;9.00;75.34
74923;HTU21D;64715;44.760;37.678;2022-11-15T05:26:57;9.29;74.68
74923;HTU21D;64715;44.760;37.678;2022-11-15T05:28:16;9.55;74.08
74923;HTU21D;64715;44.760;37.678;2022-11-15T05:29:36;9.84;73.33
74923;HTU21D;64715;44.760;37.678;2022-11-15T05:31:10;10.12;71.90
74923;HTU21D;64715;44.760;37.678;2022-11-15T05:32:29;10.41;72.02
74923;HTU21D;64715;44.760;37.678;2022-11-15T05:33:50;10.66;70.50
74923;HTU21D;64715;44.760;37.678;2022-11-15T05:35:20;10.85;69.33
74923;HTU21D;64715;44.760;37.678;2022-11-15T05:36:42;11.05;69.05
74923;HTU21D;64715;44.760;37.678;2022-11-15T05:38:02;11.33;68.71
74923;HTU21D;64715;44.760;37.678;2022-11-15T05:39:22;11.55;67.56
74923;HTU21D;64715;44.760;37.678;2022-11-15T05:40:41;11.73;66.59
74923;HTU21D;64715;44.760;37.678;2022-11-15T05:42:06;11.93;66.07
74923;HTU21D;64715;44.760;37.678;2022-11-15T05:43:30;12.11;65.46
74923;HTU21D;64715;44.760;37.678;2022-11-15T05:44:51;12.31;65.25
74923;HTU21D;64715;44.760;37.678;2022-11-15T05:46:12;12.56;64.21
74923;HTU21D;64715;44.760;37.678;2022-11-15T05:47:34;12.81;63.37
74923;HTU21D;64715;44.760;37.678;2022-11-15T05:48:56;13.03;62.27
74923;HTU21D;64715;44.760;37.678;2022-11-15T05:50:17;13.18;61.92
74923;HTU21D;64715;44.760;37.678;2022-11-15T05:51:39;13.37;61.34
74923;HTU21D;64715;44.760;37.678;2022-11-15T05:53:01;13.50;60.92
74923;HTU21D;64715;44.760;37.678;2022-11-15T05:54:22;13.66;60.13
74923;HTU21D;64715;44.760;37.678;2022-11-15T05:55:43;13.79;59.03
74923;HTU21D;64715;44.760;37.678;2022-11-15T05:57:04;13.85;58.67
74923;HTU21D;64715;44.760;37.678;2022-11-15T05:58:23;13.97;58.32
74923;HTU21D;64715;44.760;37.678;2022-11-15T05:59:43;14.10;58.00
74923;HTU21D;64715;44.760;37.678;2022-11-15T06:01:02;14.20;57.12
74923;HTU21D;64715;44.760;37.678;2022-11-15T06:02:22;14.26;56.51
74923;HTU21D;64715;44.760;37.678;2022-11-15T06:03:41;14.28;56.10
74923;HTU21D;64715;44.760;37.678;2022-11-15T06:05:01;14.26;56.18
74923;HTU21D;64715;44.760;37.678;2022-11-15T06:06:20;14.34;55.94
74923;HTU21D;64715;44.760;37.678;2022-11-15T06:07:40;14.35;55.07
74923;HTU21D;64715;44.760;37.678;2022-11-15T06:09:00;14.34;54.85
74923;HTU21D;64715;44.760;37.678;2022-11-15T06:10:19;14.29;55.07
74923;HTU21D;64715;44.760;37.678;2022-11-15T06:11:39;14.22;55.05
74923;HTU21D;64715;44.760;37.678;2022-11-15T06:13:01;14.10;55.13
74923;HTU21D;64715;44.760;37.678;2022-11-15T06:14:21;14.01;54.41
74923;HTU21D;64715;44.760;37.678;2022-11-15T06:15:40;13.88;54.81
74923;HTU21D;64715;44.760;37.678;2022-11-15T06:17:00;13.69;55.12
74923;HTU21D;64715;44.760;37.678;2022-11-15T06:18:20;13.61;56.02
74923;HTU21D;64715;44.760;37.678;2022-11-15T06:19:40;13.59;56.29
74923;HTU21D;64715;44.760;37.678;2022-11-15T06:21:00;13.58;56.23
74923;HTU21D;64715;44.760;37.678;2022-11-15T06:22:20;13.62;56.29
74923;HTU21D;64715;44.760;37.678;2022-11-15T06:23:40;13.67;55.48
74923;HTU21D;64715;44.760;37.678;2022-11-15T06:25:01;13.75;55.43
74923;HTU21D;64715;44.760;37.678;2022-11-15T06:26:21;13.81;55.14
74923;HTU21D;64715;44.760;37.678;2022-11-15T06:27:40;13.91;54.30
74923;HTU21D;64715;44.760;37.678;2022-11-15T06:28:59;14.00;53.96
74923;HTU21D;64715;44.760;37.678;2022-11-15T06:30:21;14.13;53.41
74923;HTU21D;64715;44.760;37.678;2022-11-15T06:31:40;14.30;53.52
74923;HTU21D;64715;44.760;37.678;2022-11-15T06:33:01;14.54;52.16
74923;HTU21D;64715;44.760;37.678;2022-11-15T06:34:21;14.72;51.39
74923;HTU21D;64715;44.760;37.678;2022-11-15T06:35:40;14.86;50.14
74923;HTU21D;64715;44.760;37.678;2022-11-15T06:36:59;14.95;49.81
74923;HTU21D;64715;44.760;37.678;2022-11-15T06:38:19;14.99;49.40
74923;HTU21D;64715;44.760;37.678;2022-11-15T06:39:38;15.01;48.95
74923;HTU21D;64715;44.760;37.678;2022-11-15T06:41:04;15.01;48.92
74923;HTU21D;64715;44.760;37.678;2022-11-15T06:42:23;15.02;49.15
74923;HTU21D;64715;44.760;37.678;2022-11-15T06:43:43;14.98;49.27
74923;HTU21D;64715;44.760;37.678;2022-11-15T06:45:03;14.85;49.36
74923;HTU21D;64715;44.760;37.678;2022-11-15T06:46:23;14.75;49.76
74923;HTU21D;64715;44.760;37.678;2022-11-15T06:47:46;14.70;49.78
74923;HTU21D;64715;44.760;37.678;2022-11-15T06:49:06;14.56;49.63
74923;HTU21D;64715;44.760;37.678;2022-11-15T06:50:25;14.43;49.73
74923;HTU21D;64715;44.760;37.678;2022-11-15T06:51:45;14.36;50.52
74923;HTU21D;64715;44.760;37.678;2022-11-15T06:53:04;14.29;50.80
74923;HTU21D;64715;44.760;37.678;2022-11-15T06:54:24;14.09;51.43
74923;HTU21D;64715;44.760;37.678;2022-11-15T06:55:43;13.91;51.47
74923;HTU21D;64715;44.760;37.678;2022-11-15T06:57:04;13.73;51.56
74923;HTU21D;64715;44.760;37.678;2022-11-15T06:58:24;13.63;51.89
74923;HTU21D;64715;44.760;37.678;2022-11-15T06:59:44;13.54;51.76
74923;HTU21D;64715;44.760;37.678;2022-11-15T07:01:07;13.38;51.15
74923;HTU21D;64715;44.760;37.678;2022-11-15T07:02:27;13.25;50.99
74923;HTU21D;64715;44.760;37.678;2022-11-15T07:03:47;13.14;50.68
74923;HTU21D;64715;44.760;37.678;2022-11-15T07:05:07;12.99;50.54
74923;HTU21D;64715;44.760;37.678;2022-11-15T07:06:26;12.85;51.17
74923;HTU21D;64715;44.760;37.678;2022-11-15T07:07:51;12.70;51.40
74923;HTU21D;64715;44.760;37.678;2022-11-15T07:09:11;12.59;51.37
74923;HTU21D;64715;44.760;37.678;2022-11-15T07:10:31;12.47;51.14
74923;HTU21D;64715;44.760;37.678;2022-11-15T07:11:51;12.31;50.76
74923;HTU21D;64715;44.760;37.678;2022-11-15T07:13:11;12.16;50.33
74923;HTU21D;64715;44.760;37.678;2022-11-15T07:14:31;12.04;50.32
74923;HTU21D;64715;44.760;37.678;2022-11-15T07:15:50;11.97;50.44
74923;HTU21D;64715;44.760;37.678;2022-11-15T07:17:10;11.86;50.36
74923;HTU21D;64715;44.760;37.678;2022-11-15T07:18:30;11.77;50.56
74923;HTU21D;64715;44.760;37.678;2022-11-15T07:19:49;11.72;50.87
74923;HTU21D;64715;44.760;37.678;2022-11-15T07:21:10;11.64;51.15
74923;HTU21D;64715;44.760;37.678;2022-11-15T07:22:30;11.62;51.34
74923;HTU21D;64715;44.760;37.678;2022-11-15T07:23:50;11.62;51.49
74923;HTU21D;64715;44.760;37.678;2022-11-15T07:25:10;11.67;51.92
74923;HTU21D;64715;44.760;37.678;2022-11-15T07:26:30;11.72;52.39
74923;HTU21D;64715;44.760;37.678;2022-11-15T07:27:57;11.78;52.62
74923;HTU21D;64715;44.760;37.678;2022-11-15T07:29:17;11.89;52.26
74923;HTU21D;64715;44.760;37.678;2022-11-15T07:30:37;11.94;51.82
74923;HTU21D;64715;44.760;37.678;2022-11-15T13:10:33;9.57;58.16
74923;HTU21D;64715;44.760;37.678;2022-11-15T13:11:45;9.53;58.56
74923;HTU21D;64715;44.760;37.678;2022-11-15T13:13:48;9.47;59.28
74923;HTU21D;64715;44.760;37.678;2022-11-15T13:14:56;9.45;59.62
74923;HTU21D;64715;44.760;37.678;2022-11-15T13:16:01;9.40;59.74
74923;HTU21D;64715;44.760;37.678;2022-11-15T13:17:34;9.38;59.83
74923;HTU21D;64715;44.760;37.678;2022-11-15T13:18:39;9.33;59.73
74923;HTU21D;64715;44.760;37.678;2022-11-15T13:19:40;9.30;59.81
74923;HTU21D;64715;44.760;37.678;2022-11-15T13:20:45;9.25;60.57
74923;HTU21D;64715;44.760;37.678;2022-11-15T13:21:49;9.23;60.49
74923;HTU21D;64715;44.760;37.678;2022-11-15T13:23:11;9.19;60.57
74923;HTU21D;64715;44.760;37.678;2022-11-15T13:24:16;9.15;60.99
74923;HTU21D;64715;44.760;37.678;2022-11-15T13:26:38;9.07;61.28
74923;HTU21D;64715;44.760;37.678;2022-11-15T13:27:41;9.04;61.40
74923;HTU21D;64715;44.760;37.678;2022-11-15T13:28:43;9.01;61.74
74923;HTU21D;64715;44.760;37.678;2022-11-15T13:29:45;8.98;61.83
74923;HTU21D;64715;44.760;37.678;2022-11-15T13:31:48;8.91;62.47
74923;HTU21D;64715;44.760;37.678;2022-11-15T13:32:50;8.89;62.31
74923;HTU21D;64715;44.760;37.678;2022-11-15T13:33:53;8.86;62.48
74923;HTU21D;64715;44.760;37.678;2022-11-15T13:34:55;8.83;62.68
74923;HTU21D;64715;44.760;37.678;2022-11-15T13:36:09;8.80;62.73
74923;HTU21D;64715;44.760;37.678;2022-11-15T13:38:35;8.72;62.98
74923;HTU21D;64715;44.760;37.678;2022-11-15T13:39:36;8.65;62.92
74923;HTU21D;64715;44.760;37.678;2022-11-15T13:40:38;8.63;63.04
74923;HTU21D;64715;44.760;37.678;2022-11-15T13:41:50;8.59;63.49
74923;HTU21D;64715;44.760;37.678;2022-11-15T13:42:52;8.56;63.27
74923;HTU21D;64715;44.760;37.678;2022-11-15T13:43:54;8.48;63.69
74923;HTU21D;64715;44.760;37.678;2022-11-15T13:45:04;8.46;63.73
74923;HTU21D;64715;44.760;37.678;2022-11-15T13:47:14;8.37;64.03
74923;HTU21D;64715;44.760;37.678;2022-11-15T13:48:15;8.33;64.08
74923;HTU21D;64715;44.760;37.678;2022-11-15T13:49:16;8.30;64.49
74923;HTU21D;64715;44.760;37.678;2022-11-15T13:50:21;8.27;64.57
74923;HTU21D;64715;44.760;37.678;2022-11-15T13:52:33;8.19;64.94
74923;HTU21D;64715;44.760;37.678;2022-11-15T13:53:39;8.15;65.06
74923;HTU21D;64715;44.760;37.678;2022-11-15T13:55:05;8.11;65.15
74923;HTU21D;64715;44.760;37.678;2022-11-15T13:56:10;8.06;64.94
74923;HTU21D;64715;44.760;37.678;2022-11-15T13:57:15;8.04;65.38
74923;HTU21D;64715;44.760;37.678;2022-11-15T13:58:16;7.99;65.66
74923;HTU21D;64715;44.760;37.678;2022-11-15T13:59:34;7.96;65.75
74923;HTU21D;64715;44.760;37.678;2022-11-15T14:00:43;7.89;65.86
74923;HTU21D;64715;44.760;37.678;2022-11-15T14:01:44;7.88;65.82
74923;HTU21D;64715;44.760;37.678;2022-11-15T14:02:45;7.84;66.17
74923;HTU21D;64715;44.760;37.678;2022-11-15T14:03:53;7.82;66.57
74923;HTU21D;64715;44.760;37.678;2022-11-15T14:05:02;7.76;66.62
74923;HTU21D;64715;44.760;37.678;2022-11-15T14:06:08;7.73;66.58
74923;HTU21D;64715;44.760;37.678;2022-11-15T14:07:22;7.70;66.72
74923;HTU21D;64715;44.760;37.678;2022-11-15T14:08:24;7.65;66.78
74923;HTU21D;64715;44.760;37.678;2022-11-15T14:09:34;7.62;66.98
74923;HTU21D;64715;44.760;37.678;2022-11-15T14:10:36;7.58;67.20
74923;HTU21D;64715;44.760;37.678;2022-11-15T14:11:49;7.55;67.71
74923;HTU21D;64715;44.760;37.678;2022-11-15T14:12:51;7.50;67.43
74923;HTU21D;64715;44.760;37.678;2022-11-15T14:14:20;7.46;67.51
74923;HTU21D;64715;44.760;37.678;2022-11-15T14:15:31;7.42;67.68
74923;HTU21D;64715;44.760;37.678;2022-11-15T14:16:54;7.39;67.62
74923;HTU21D;64715;44.760;37.678;2022-11-15T14:17:55;7.34;67.83
74923;HTU21D;64715;44.760;37.678;2022-11-15T14:19:04;7.32;67.68
74923;HTU21D;64715;44.760;37.678;2022-11-15T14:21:25;7.22;68.11
74923;HTU21D;64715;44.760;37.678;2022-11-15T14:22:28;7.17;68.20
74923;HTU21D;64715;44.760;37.678;2022-11-15T14:23:29;7.14;68.60
74923;HTU21D;64715;44.760;37.678;2022-11-15T14:24:31;7.10;68.67
74923;HTU21D;64715;44.760;37.678;2022-11-15T14:25:35;7.08;68.68
74923;HTU21D;64715;44.760;37.678;2022-11-15T14:26:36;7.05;68.61
74923;HTU21D;64715;44.760;37.678;2022-11-15T14:27:38;7.01;68.71
74923;HTU21D;64715;44.760;37.678;2022-11-15T14:28:39;6.99;68.75
74923;HTU21D;64715;44.760;37.678;2022-11-15T14:29:40;6.96;68.97